Seattle, Washington
Current Conditions -  °F | °C
As of 10:32 AM on Tuesday 27 Jan 2015 (Local Time) from KBFI Reporting Station
Light Rain Light Rain  
Wind Chill: 11°   Ceiling: 1000
Heat Index: 11°   Visibility: 2mi
Dew Point:   Wind: 6mph
Humidity: 88%   Direction: 150°SSE
Pressure: 30.08"   Gusts: NA
Location:  47.6°N, 122.32°W
Report Text: KBFI 271832Z 15005KT 2SM -RA BR OVC010 11/09 A3008 RMK AO2 RAB27 P0000
Loading
Personal Weather Stations






























Interactive Weather Map New forecast layout! Learn more

10-Day Weather Forecast

Advertisements
Track Severe Weather on mobile